Time;durP1;ratioP1;P1;durP2;ratioP2;P2;SDS_P1;SDS_P2;PMS_P1;PMS_P2;Temp;Humidity;BMP_temperature;BMP_pressure;BME280_temperature;BME280_humidity;BME280_pressure;Samples;Min_cycle;Max_cycle;Signal;HPM_P1;HPM_P2
2021/03/25 00:01:42;;;;;;;14.90;12.82;;;;;;;;;;4991459;28;20069;-63
2021/03/25 00:04:07;;;;;;;13.77;11.32;;;;;;;;;;4992556;28;20027;-63
2021/03/25 00:06:36;;;;;;;13.90;10.77;;;;;;;;;;4991743;28;20029;-64
2021/03/25 00:09:03;;;;;;;16.10;12.93;;;;;;;;;;4992352;28;20218;-64
2021/03/25 00:11:28;;;;;;;13.85;12.45;;;;;;;;;;4992118;28;20524;-64
2021/03/25 00:13:53;;;;;;;11.10;9.52;;;;;;;;;;4992247;28;20031;-64
2021/03/25 00:16:19;;;;;;;10.40;8.13;;;;;;;;;;4991920;28;20109;-64
2021/03/25 00:18:44;;;;;;;13.82;9.50;;;;;;;;;;4991788;28;20028;-64
2021/03/25 00:21:10;;;;;;;9.07;7.32;;;;;;;;;;4989321;28;20027;-64
2021/03/25 00:23:36;;;;;;;9.45;8.13;;;;;;;;;;4991757;28;20081;-64
2021/03/25 00:26:01;;;;;;;9.57;8.32;;;;;;;;;;4991961;28;20034;-64
2021/03/25 00:28:27;;;;;;;14.20;10.15;;;;;;;;;;4990193;28;20022;-64
2021/03/25 00:30:53;;;;;;;11.18;8.50;;;;;;;;;;4988729;28;20478;-64
2021/03/25 00:33:19;;;;;;;11.15;10.13;;;;;;;;;;4988687;28;20027;-64
2021/03/25 00:35:45;;;;;;;12.25;9.20;;;;;;;;;;4974356;28;20503;-64
2021/03/25 00:38:10;;;;;;;13.82;9.10;;;;;;;;;;4991872;28;20101;-64
2021/03/25 00:40:36;;;;;;;9.60;8.52;;;;;;;;;;4991530;28;20033;-64
2021/03/25 00:43:02;;;;;;;11.63;10.43;;;;;;;;;;4991777;28;21103;-64
2021/03/25 00:45:29;;;;;;;8.38;6.80;;;;;;;;;;4991596;28;20429;-64
2021/03/25 00:47:55;;;;;;;9.35;8.38;;;;;;;;;;4991885;28;20421;-64
2021/03/25 00:50:26;;;;;;;11.95;9.20;;;;;;;;;;4985474;28;20034;-64
2021/03/25 00:52:51;;;;;;;12.57;9.95;;;;;;;;;;4982637;28;20026;-64
2021/03/25 00:55:17;;;;;;;16.13;9.35;;;;;;;;;;4986414;28;20090;-64
2021/03/25 00:57:42;;;;;;;14.50;8.25;;;;;;;;;;4989956;28;20097;-65
2021/03/25 01:00:08;;;;;;;10.07;8.63;;;;;;;;;;4986551;28;20034;-64
2021/03/25 01:02:33;;;;;;;19.00;10.27;;;;;;;;;;4984663;28;20045;-64
2021/03/25 01:04:59;;;;;;;26.10;16.35;;;;;;;;;;4983692;28;20118;-64
2021/03/25 01:07:28;;;;;;;28.05;20.95;;;;;;;;;;4988809;28;20018;-64
2021/03/25 01:09:53;;;;;;;24.38;21.92;;;;;;;;;;4990135;28;20022;-64
2021/03/25 01:12:19;;;;;;;14.15;12.68;;;;;;;;;;4991261;28;20030;-64
2021/03/25 01:14:45;;;;;;;19.40;11.13;;;;;;;;;;4991292;28;20114;-64
2021/03/25 01:17:10;;;;;;;12.05;10.18;;;;;;;;;;4981652;28;20023;-64
2021/03/25 01:19:35;;;;;;;22.90;11.98;;;;;;;;;;4991626;28;20038;-64
2021/03/25 01:22:01;;;;;;;12.45;9.57;;;;;;;;;;4991102;28;20505;-64
2021/03/25 01:24:27;;;;;;;9.55;8.57;;;;;;;;;;4989771;28;20035;-64
2021/03/25 01:26:52;;;;;;;20.35;8.98;;;;;;;;;;4981629;28;20030;-64
2021/03/25 01:29:18;;;;;;;9.55;7.55;;;;;;;;;;4986054;28;20035;-65
2021/03/25 01:31:44;;;;;;;6.05;4.78;;;;;;;;;;4991201;28;20022;-64
2021/03/25 01:34:11;;;;;;;7.72;4.63;;;;;;;;;;4984360;28;20535;-64
2021/03/25 01:36:36;;;;;;;7.03;6.13;;;;;;;;;;4989254;28;20049;-64
2021/03/25 01:39:02;;;;;;;9.45;7.28;;;;;;;;;;4982787;28;20453;-64
2021/03/25 01:41:30;;;;;;;5.57;4.63;;;;;;;;;;4988401;28;20105;-64
2021/03/25 01:43:55;;;;;;;6.78;5.07;;;;;;;;;;4991213;28;20050;-64
2021/03/25 01:46:21;;;;;;;4.93;4.40;;;;;;;;;;4994514;28;20058;-64
2021/03/25 01:48:50;;;;;;;4.72;3.75;;;;;;;;;;4994960;28;20109;-64
2021/03/25 01:51:34;;;;;;;8.32;4.35;;;;;;;;;;4990715;28;20433;-64
2021/03/25 01:54:05;;;;;;;4.65;3.55;;;;;;;;;;4989679;28;20038;-64
2021/03/25 01:56:34;;;;;;;8.18;4.22;;;;;;;;;;4991513;28;20500;-64
2021/03/25 01:58:59;;;;;;;6.75;5.47;;;;;;;;;;4993176;28;20034;-64
2021/03/25 02:01:27;;;;;;;7.03;5.57;;;;;;;;;;4984479;28;20065;-64
2021/03/25 02:03:52;;;;;;;8.27;7.22;;;;;;;;;;4991717;28;20030;-65
2021/03/25 02:06:18;;;;;;;12.07;8.07;;;;;;;;;;4994389;28;20022;-65
2021/03/25 02:09:01;;;;;;;4.88;3.63;;;;;;;;;;4994520;28;20064;-65
2021/03/25 02:11:38;;;;;;;6.13;3.45;;;;;;;;;;4992754;28;20520;-65
2021/03/25 02:14:16;;;;;;;4.57;3.53;;;;;;;;;;4991191;28;20026;-65
2021/03/25 02:16:54;;;;;;;4.85;2.92;;;;;;;;;;4994327;28;20030;-65
2021/03/25 02:19:25;;;;;;;3.88;2.78;;;;;;;;;;4994152;28;20361;-65
2021/03/25 02:21:50;;;;;;;;;;;;;;;;;;4992364;28;20049;-65
2021/03/25 02:24:36;;;;;;;6.93;3.17;;;;;;;;;;4993731;28;19949;-65
2021/03/25 02:27:07;;;;;;;2.88;1.52;;;;;;;;;;4963322;28;20030;-65
2021/03/25 02:29:32;;;;;;;;;;;;;;;;;;4994720;28;20113;-65
2021/03/25 02:32:00;;;;;;;10.50;2.90;;;;;;;;;;4992550;28;19996;-65
2021/03/25 02:34:28;;;;;;;4.00;2.47;;;;;;;;;;4987213;28;20580;-65
2021/03/25 02:36:56;;;;;;;6.88;3.92;;;;;;;;;;4991366;28;20025;-65
2021/03/25 02:39:35;;;;;;;4.65;2.45;;;;;;;;;;4994062;28;20362;-65
2021/03/25 02:42:01;;;;;;;3.83;2.80;;;;;;;;;;4976393;28;20102;-65
2021/03/25 02:44:45;;;;;;;14.35;4.07;;;;;;;;;;4990524;28;20109;-65
2021/03/25 02:47:12;;;;;;;7.35;3.00;;;;;;;;;;4990481;28;20014;-64
2021/03/25 02:49:46;;;;;;;4.63;3.22;;;;;;;;;;4990791;28;20517;-65
2021/03/25 02:52:14;;;;;;;9.63;4.13;;;;;;;;;;4993636;28;20478;-65
2021/03/25 02:54:40;;;;;;;6.40;4.10;;;;;;;;;;4993880;28;20051;-65
2021/03/25 02:57:27;;;;;;;9.75;4.90;;;;;;;;;;4988396;28;20097;-65
2021/03/25 02:59:57;;;;;;;6.88;3.75;;;;;;;;;;4993784;28;20553;-65
2021/03/25 03:02:33;;;;;;;6.60;4.32;;;;;;;;;;4993219;28;20461;-65
2021/03/25 03:05:01;;;;;;;6.35;4.25;;;;;;;;;;4992017;28;20365;-65
2021/03/25 03:07:30;;;;;;;3.70;2.97;;;;;;;;;;4990757;28;20026;-65
2021/03/25 03:09:59;;;;;;;6.07;3.33;;;;;;;;;;4987904;28;20076;-65
2021/03/25 03:12:26;;;;;;;9.95;5.05;;;;;;;;;;4985674;28;20030;-64
2021/03/25 03:14:55;;;;;;;3.45;2.60;;;;;;;;;;4993081;28;20034;-65
2021/03/25 03:17:28;;;;;;;17.95;4.60;;;;;;;;;;4974077;28;20032;-65
2021/03/25 03:20:14;;;;;;;5.50;3.10;;;;;;;;;;4991443;28;20433;-65
2021/03/25 03:22:39;;;;;;;4.13;2.60;;;;;;;;;;4988897;28;20106;-65
2021/03/25 03:25:08;;;;;;;2.92;2.08;;;;;;;;;;4972842;28;20443;-65
2021/03/25 03:27:43;;;;;;;3.63;2.83;;;;;;;;;;4988261;28;20121;-65
2021/03/25 03:30:14;;;;;;;3.75;2.67;;;;;;;;;;4990250;28;20043;-65
2021/03/25 03:32:52;;;;;;;3.35;2.05;;;;;;;;;;4992530;28;20027;-65
2021/03/25 03:35:22;;;;;;;4.32;2.47;;;;;;;;;;4984783;28;20465;-65
2021/03/25 03:37:49;;;;;;;6.60;2.05;;;;;;;;;;4984689;28;20158;-65
2021/03/25 03:40:19;;;;;;;5.95;2.38;;;;;;;;;;4991216;28;20023;-65
2021/03/25 03:42:45;;;;;;;3.97;1.98;;;;;;;;;;4984491;28;20105;-64
2021/03/25 03:45:13;;;;;;;6.38;2.42;;;;;;;;;;4986662;28;20353;-65
2021/03/25 03:47:41;;;;;;;3.05;2.72;;;;;;;;;;4987370;28;20030;-65
2021/03/25 03:50:38;;;;;;;2.80;2.28;;;;;;;;;;4992891;28;20026;-65
2021/03/25 03:53:04;;;;;;;4.18;3.17;;;;;;;;;;4957841;28;20396;-64
2021/03/25 03:55:32;;;;;;;3.28;2.35;;;;;;;;;;4983925;28;20029;-65
2021/03/25 03:58:17;;;;;;;5.93;2.72;;;;;;;;;;4970135;28;20023;-63
2021/03/25 04:01:02;;;;;;;9.00;3.95;;;;;;;;;;4985405;28;20142;-64
2021/03/25 04:03:30;;;;;;;5.60;4.10;;;;;;;;;;4992030;28;20469;-64
2021/03/25 04:06:06;;;;;;;7.00;3.42;;;;;;;;;;4989594;28;20018;-63
2021/03/25 04:08:34;;;;;;;4.47;3.85;;;;;;;;;;4990200;28;20034;-65
2021/03/25 04:11:03;;;;;;;7.38;4.05;;;;;;;;;;4990438;28;20026;-65
2021/03/25 04:13:50;;;;;;;3.60;3.28;;;;;;;;;;4990461;28;20037;-65
2021/03/25 04:16:17;;;;;;;6.65;4.07;;;;;;;;;;4985105;28;20196;-65
2021/03/25 04:18:45;;;;;;;8.35;5.35;;;;;;;;;;4989322;28;20575;-65
2021/03/25 04:21:14;;;;;;;6.75;4.68;;;;;;;;;;4974344;28;20100;-65
2021/03/25 04:23:41;;;;;;;9.73;5.07;;;;;;;;;;4985766;28;20038;-65
2021/03/25 04:26:11;;;;;;;5.35;3.53;;;;;;;;;;4991464;28;20114;-65
2021/03/25 04:28:44;;;;;;;7.18;4.07;;;;;;;;;;4992426;28;20100;-65
2021/03/25 04:31:09;;;;;;;6.28;5.20;;;;;;;;;;4989511;28;20022;-72
2021/03/25 04:33:36;;;;;;;5.53;3.50;;;;;;;;;;4992211;28;20050;-60
2021/03/25 04:36:03;;;;;;;5.55;3.20;;;;;;;;;;4990328;28;20065;-61
2021/03/25 04:38:34;;;;;;;4.80;3.53;;;;;;;;;;4992279;28;20042;-60
2021/03/25 04:41:00;;;;;;;5.65;3.63;;;;;;;;;;4991826;28;20030;-61
2021/03/25 04:43:25;;;;;;;7.78;4.07;;;;;;;;;;4991913;28;20045;-60
2021/03/25 04:46:00;;;;;;;4.32;2.97;;;;;;;;;;4991442;28;20030;-60
2021/03/25 04:48:27;;;;;;;3.90;2.88;;;;;;;;;;4991861;28;20088;-59
2021/03/25 04:51:05;;;;;;;4.90;2.40;;;;;;;;;;4990314;28;20026;-60
2021/03/25 04:53:37;;;;;;;4.68;3.40;;;;;;;;;;4991966;28;20085;-60
2021/03/25 04:56:06;;;;;;;5.78;2.80;;;;;;;;;;4990196;28;20034;-59
2021/03/25 04:58:55;;;;;;;5.97;2.70;;;;;;;;;;4988524;28;20109;-60
2021/03/25 05:01:24;;;;;;;4.57;2.33;;;;;;;;;;4980624;28;20061;-60
2021/03/25 05:03:54;;;;;;;1.92;1.42;;;;;;;;;;4987527;28;20045;-60
2021/03/25 05:06:20;;;;;;;4.28;3.25;;;;;;;;;;4989341;28;20036;-59
2021/03/25 05:08:47;;;;;;;5.72;3.05;;;;;;;;;;4992119;28;20404;-60
2021/03/25 05:11:14;;;;;;;7.97;3.22;;;;;;;;;;4984391;28;20022;-59
2021/03/25 05:13:41;;;;;;;4.03;3.65;;;;;;;;;;4989963;28;20077;-71
2021/03/25 05:16:06;;;;;;;6.35;4.15;;;;;;;;;;4991425;28;20378;-64
2021/03/25 05:18:32;;;;;;;6.00;3.80;;;;;;;;;;4991915;28;20038;-63
2021/03/25 05:21:01;;;;;;;5.03;3.90;;;;;;;;;;4995114;28;20110;-63
2021/03/25 05:23:26;;;;;;;8.20;4.82;;;;;;;;;;4995147;28;20030;-63
2021/03/25 05:25:54;;;;;;;3.53;2.42;;;;;;;;;;4995141;28;20033;-64
2021/03/25 05:28:25;;;;;;;5.20;3.38;;;;;;;;;;4995198;28;20105;-63
2021/03/25 05:30:51;;;;;;;3.92;3.28;;;;;;;;;;4993662;28;20019;-64
2021/03/25 05:33:19;;;;;;;5.35;4.45;;;;;;;;;;4991744;28;20033;-63
2021/03/25 05:35:51;;;;;;;5.00;3.95;;;;;;;;;;4992342;28;20029;-63
2021/03/25 05:38:16;;;;;;;;;;;;;;;;;;4978053;28;20504;-63
2021/03/25 05:41:10;;;;;;;9.07;3.67;;;;;;;;;;4995136;28;19909;-63
2021/03/25 05:43:54;;;;;;;6.70;2.67;;;;;;;;;;4981975;28;20511;-63
2021/03/25 05:46:27;;;;;;;11.02;2.40;;;;;;;;;;4992020;28;20429;-63
2021/03/25 05:48:53;;;;;;;3.55;2.22;;;;;;;;;;4987499;28;20035;-63
2021/03/25 05:51:24;;;;;;;3.17;2.22;;;;;;;;;;4994538;28;20370;-64
2021/03/25 05:53:58;;;;;;;7.75;4.60;;;;;;;;;;4993562;28;20034;-63
2021/03/25 05:56:42;;;;;;;20.15;4.63;;;;;;;;;;4979616;28;20030;-64
2021/03/25 05:59:27;;;;;;;8.13;3.08;;;;;;;;;;4988225;28;20145;-63
2021/03/25 06:02:02;;;;;;;4.22;2.88;;;;;;;;;;4994580;28;20574;-64
2021/03/25 06:04:34;;;;;;;4.32;3.35;;;;;;;;;;4993013;28;20027;-63
2021/03/25 06:07:17;;;;;;;7.40;4.88;;;;;;;;;;4987704;28;20106;-63
2021/03/25 06:09:48;;;;;;;6.65;4.63;;;;;;;;;;4992020;28;20038;-63
2021/03/25 06:12:22;;;;;;;6.65;3.65;;;;;;;;;;4992948;28;20101;-65
2021/03/25 06:15:16;;;;;;;10.55;3.28;;;;;;;;;;4987542;28;20458;-64
2021/03/25 06:17:48;;;;;;;13.38;12.18;;;;;;;;;;4940997;28;20054;-65
2021/03/25 06:20:13;;;;;;;5.82;4.53;;;;;;;;;;4994665;28;20066;-65
2021/03/25 06:22:41;;;;;;;5.00;3.03;;;;;;;;;;4992481;28;20050;-65
2021/03/25 06:25:20;;;;;;;5.53;2.67;;;;;;;;;;4990513;28;20026;-65
2021/03/25 06:27:58;;;;;;;3.78;2.75;;;;;;;;;;4964118;28;20018;-65
2021/03/25 06:30:30;;;;;;;5.28;4.65;;;;;;;;;;4990466;28;20033;-65
2021/03/25 06:33:03;;;;;;;23.40;14.70;;;;;;;;;;4994014;28;20454;-65
2021/03/25 06:35:35;;;;;;;17.73;8.85;;;;;;;;;;4991341;28;20035;-65
2021/03/25 06:38:01;;;;;;;5.50;3.72;;;;;;;;;;4993969;28;20022;-65
2021/03/25 06:40:39;;;;;;;7.38;4.03;;;;;;;;;;4993873;28;20030;-65
2021/03/25 06:43:10;;;;;;;8.80;4.43;;;;;;;;;;4992522;28;20544;-66
2021/03/25 06:45:38;;;;;;;9.97;5.70;;;;;;;;;;4992869;28;20392;-65
2021/03/25 06:48:10;;;;;;;10.48;5.78;;;;;;;;;;4990534;28;20501;-65
2021/03/25 06:50:35;;;;;;;;;;;;;;;;;;4986667;28;20034;-65
2021/03/25 06:53:10;;;;;;;11.00;7.55;;;;;;;;;;4993514;28;19906;-66
2021/03/25 06:55:36;;;;;;;19.58;8.30;;;;;;;;;;4993405;28;20516;-66
2021/03/25 06:58:05;;;;;;;22.85;12.93;;;;;;;;;;4989068;28;20026;-65
2021/03/25 07:00:34;;;;;;;15.68;12.48;;;;;;;;;;4989354;28;20032;-65
2021/03/25 07:03:02;;;;;;;8.40;7.50;;;;;;;;;;4990910;28;20606;-67
2021/03/25 07:05:29;;;;;;;36.28;11.48;;;;;;;;;;4989005;28;20050;-68
2021/03/25 07:07:58;;;;;;;10.23;7.90;;;;;;;;;;4992596;28;20018;-65
2021/03/25 07:10:24;;;;;;;9.10;6.38;;;;;;;;;;4990759;28;20034;-68
2021/03/25 07:12:50;;;;;;;9.25;7.07;;;;;;;;;;4988927;28;20044;-67
2021/03/25 07:15:21;;;;;;;11.98;6.72;;;;;;;;;;4990410;28;20030;-68
2021/03/25 07:17:46;;;;;;;14.95;5.97;;;;;;;;;;4990519;28;20430;-68
2021/03/25 07:20:23;;;;;;;6.43;4.72;;;;;;;;;;4993221;28;20031;-67
2021/03/25 07:23:07;;;;;;;10.85;6.50;;;;;;;;;;4979746;28;20038;-66
2021/03/25 07:25:35;;;;;;;6.75;5.40;;;;;;;;;;4990291;28;20042;-67
2021/03/25 07:28:02;;;;;;;6.85;5.57;;;;;;;;;;4992172;28;20076;-67
2021/03/25 07:30:38;;;;;;;7.50;4.28;;;;;;;;;;4988388;28;20524;-68
2021/03/25 07:33:09;;;;;;;11.40;4.25;;;;;;;;;;4990798;28;20413;-66
2021/03/25 07:35:44;;;;;;;5.00;4.53;;;;;;;;;;4971822;28;20022;-66
2021/03/25 07:38:24;;;;;;;5.38;3.88;;;;;;;;;;4989973;28;20030;-66
2021/03/25 07:41:08;;;;;;;4.85;4.03;;;;;;;;;;4983249;28;20027;-71
2021/03/25 07:44:02;;;;;;;17.63;15.82;;;;;;;;;;4989284;28;20072;-72
2021/03/25 07:46:28;;;;;;;13.30;12.05;;;;;;;;;;4955191;28;20176;-72
2021/03/25 07:48:58;;;;;;;13.43;12.02;;;;;;;;;;4991147;28;20121;-72
2021/03/25 07:51:24;;;;;;;18.30;8.32;;;;;;;;;;4975239;28;20412;-72
2021/03/25 07:54:07;;;;;;;9.68;6.03;;;;;;;;;;4992489;28;20038;-71
2021/03/25 07:56:32;;;;;;;9.35;4.25;;;;;;;;;;4985666;28;20080;-72
2021/03/25 07:58:58;;;;;;;5.55;4.57;;;;;;;;;;4988422;28;20113;-72
2021/03/25 08:01:23;;;;;;;6.88;2.40;;;;;;;;;;4988743;28;20049;-72
2021/03/25 08:03:49;;;;;;;17.63;16.13;;;;;;;;;;4990487;28;20073;-72
2021/03/25 08:06:30;;;;;;;14.38;5.30;;;;;;;;;;4984863;28;20015;-72
2021/03/25 08:08:59;;;;;;;9.48;5.45;;;;;;;;;;4988272;28;20031;-72
2021/03/25 08:11:24;;;;;;;2.95;2.30;;;;;;;;;;4990092;28;20033;-72
2021/03/25 08:13:53;;;;;;;6.45;4.30;;;;;;;;;;4986168;28;20114;-72
2021/03/25 08:16:20;;;;;;;21.02;12.93;;;;;;;;;;4989127;28;20157;-72
2021/03/25 08:19:04;;;;;;;11.63;3.85;;;;;;;;;;4992012;28;20038;-72
2021/03/25 08:21:44;;;;;;;4.13;1.98;;;;;;;;;;4986261;28;20018;-72
2021/03/25 08:24:39;;;;;;;7.45;3.85;;;;;;;;;;4991524;28;20030;-72
2021/03/25 08:27:04;;;;;;;8.10;4.65;;;;;;;;;;4933185;28;20036;-71
2021/03/25 08:29:48;;;;;;;14.95;7.90;;;;;;;;;;4992644;28;20117;-72
2021/03/25 08:32:16;;;;;;;5.18;3.45;;;;;;;;;;4989923;28;20731;-73
2021/03/25 08:34:41;;;;;;;17.88;5.03;;;;;;;;;;4992508;28;20049;-67
2021/03/25 08:37:26;;;;;;;6.15;4.57;;;;;;;;;;4986946;28;20081;-72
2021/03/25 08:40:00;;;;;;;7.47;4.00;;;;;;;;;;4972449;28;20038;-72
2021/03/25 08:42:31;;;;;;;6.22;4.00;;;;;;;;;;4970579;28;20018;-73
2021/03/25 08:45:14;;;;;;;5.35;3.63;;;;;;;;;;4985683;28;20042;-73
2021/03/25 08:47:58;;;;;;;9.25;5.50;;;;;;;;;;4988462;28;20035;-73
2021/03/25 08:50:33;;;;;;;8.48;6.30;;;;;;;;;;4988142;28;20149;-72
2021/03/25 08:53:00;;;;;;;6.15;4.25;;;;;;;;;;4960814;28;20088;-70
2021/03/25 08:55:28;;;;;;;7.45;4.63;;;;;;;;;;4982272;28;20042;-70
2021/03/25 08:58:13;;;;;;;11.93;5.13;;;;;;;;;;4987012;28;20030;-70
2021/03/25 09:00:41;;;;;;;6.18;5.05;;;;;;;;;;4987657;28;20082;-70
2021/03/25 09:03:10;;;;;;;8.40;5.25;;;;;;;;;;4985045;28;20144;-70
2021/03/25 09:05:41;;;;;;;14.00;6.95;;;;;;;;;;4985386;28;20426;-70
2021/03/25 09:08:11;;;;;;;13.53;6.23;;;;;;;;;;4984312;28;20027;-70
2021/03/25 09:10:42;;;;;;;10.15;8.00;;;;;;;;;;4988429;28;20145;-70
2021/03/25 09:13:16;;;;;;;11.30;6.97;;;;;;;;;;4982336;28;20049;-70
2021/03/25 09:15:42;;;;;;;6.65;5.78;;;;;;;;;;4986983;28;20486;-70
2021/03/25 09:18:09;;;;;;;7.32;5.32;;;;;;;;;;4984367;28;20117;-73
2021/03/25 09:20:37;;;;;;;14.15;6.80;;;;;;;;;;4978238;28;20038;-73
2021/03/25 09:23:25;;;;;;;6.80;5.20;;;;;;;;;;4972408;28;20038;-73
2021/03/25 09:25:51;;;;;;;9.70;4.57;;;;;;;;;;4970872;28;20097;-73
2021/03/25 09:28:20;;;;;;;5.30;4.43;;;;;;;;;;4980967;28;20757;-71
2021/03/25 09:31:04;;;;;;;10.02;5.32;;;;;;;;;;4969429;28;20022;-73
2021/03/25 09:33:44;;;;;;;8.35;4.53;;;;;;;;;;4972287;28;20026;-74
2021/03/25 09:36:18;;;;;;;11.27;6.45;;;;;;;;;;4983240;28;20026;-74
2021/03/25 09:38:43;;;;;;;8.88;5.60;;;;;;;;;;4978442;28;20034;-75
2021/03/25 09:41:17;;;;;;;8.38;6.07;;;;;;;;;;4980454;28;20027;-74
2021/03/25 09:43:43;;;;;;;6.43;4.13;;;;;;;;;;4981919;28;20049;-74
2021/03/25 09:46:30;;;;;;;6.55;3.17;;;;;;;;;;4979800;28;20063;-74
2021/03/25 09:48:56;;;;;;;5.63;4.50;;;;;;;;;;4984783;28;20026;-73
2021/03/25 09:51:26;;;;;;;5.28;4.05;;;;;;;;;;4982044;28;20486;-74
2021/03/25 09:53:51;;;;;;;6.90;4.60;;;;;;;;;;4981616;28;20030;-74
2021/03/25 09:56:29;;;;;;;5.80;4.13;;;;;;;;;;4983833;28;20342;-74
2021/03/25 09:58:55;;;;;;;9.40;3.58;;;;;;;;;;4984844;28;20042;-74
2021/03/25 10:01:39;;;;;;;2.72;2.03;;;;;;;;;;4972629;28;20379;-73
2021/03/25 10:04:23;;;;;;;4.97;2.85;;;;;;;;;;4984482;28;20030;-75
2021/03/25 10:06:55;;;;;;;4.35;1.88;;;;;;;;;;4978309;28;20069;-71
2021/03/25 10:09:39;;;;;;;4.35;1.85;;;;;;;;;;4978783;28;20053;-71
2021/03/25 10:12:09;;;;;;;9.23;3.90;;;;;;;;;;4987861;28;20026;-74
2021/03/25 10:14:55;;;;;;;3.20;1.95;;;;;;;;;;4987354;28;20036;-72
2021/03/25 10:17:46;;;;;;;4.43;2.42;;;;;;;;;;4988953;28;20406;-72
2021/03/25 10:20:30;;;;;;;3.95;3.00;;;;;;;;;;4973017;28;20201;-75
2021/03/25 10:22:56;;;;;;;6.82;3.15;;;;;;;;;;4975081;28;20124;-74
2021/03/25 10:25:24;;;;;;;5.70;1.67;;;;;;;;;;4974001;28;20069;-74
2021/03/25 10:27:50;;;;;;;4.32;1.95;;;;;;;;;;4971741;28;20014;-75
2021/03/25 10:30:22;;;;;;;6.32;3.67;;;;;;;;;;4975307;28;20545;-74
2021/03/25 10:32:47;;;;;;;3.55;1.55;;;;;;;;;;4977860;28;20018;-74
2021/03/25 10:35:21;;;;;;;7.72;2.85;;;;;;;;;;4957199;28;20433;-74
2021/03/25 10:37:49;;;;;;;14.18;3.67;;;;;;;;;;4970217;28;20107;-73
2021/03/25 10:40:17;;;;;;;2.85;1.95;;;;;;;;;;4976502;28;20502;-73
2021/03/25 10:42:44;;;;;;;6.40;2.78;;;;;;;;;;4974780;28;20107;-72
2021/03/25 10:45:18;;;;;;;6.68;2.60;;;;;;;;;;4976661;28;20118;-72
2021/03/25 10:47:52;;;;;;;10.65;2.50;;;;;;;;;;4973865;28;20098;-72
2021/03/25 10:50:20;;;;;;;3.80;2.03;;;;;;;;;;4976128;28;20034;-72
2021/03/25 10:52:45;;;;;;;6.50;2.47;;;;;;;;;;4975812;28;20720;-71
2021/03/25 10:55:20;;;;;;;9.80;3.95;;;;;;;;;;4972483;28;20030;-74
2021/03/25 10:57:46;;;;;;;7.47;2.22;;;;;;;;;;4976593;28;20129;-74
2021/03/25 11:00:15;;;;;;;12.80;3.20;;;;;;;;;;4985416;28;20514;-73
2021/03/25 11:02:41;;;;;;;2.88;1.65;;;;;;;;;;4985180;28;20209;-75
2021/03/25 11:05:07;;;;;;;5.68;3.28;;;;;;;;;;4990714;28;20038;-72
2021/03/25 11:07:40;;;;;;;3.17;1.17;;;;;;;;;;4988916;28;20030;-74
2021/03/25 11:10:14;;;;;;;6.07;1.90;;;;;;;;;;4972537;28;20049;-73
2021/03/25 11:12:40;;;;;;;10.02;1.70;;;;;;;;;;4984966;28;20523;-73
2021/03/25 11:15:15;;;;;;;12.82;2.50;;;;;;;;;;4973195;28;20035;-74
2021/03/25 11:17:42;;;;;;;10.25;2.97;;;;;;;;;;4984329;28;20035;-74
2021/03/25 11:20:11;;;;;;;5.95;2.08;;;;;;;;;;4980499;28;20373;-74
2021/03/25 11:22:36;;;;;;;6.90;3.22;;;;;;;;;;4988772;28;20050;-74
2021/03/25 11:25:04;;;;;;;6.10;2.50;;;;;;;;;;4989014;28;20491;-74
2021/03/25 11:27:30;;;;;;;5.35;3.45;;;;;;;;;;4985662;28;20069;-74
2021/03/25 11:30:21;;;;;;;4.97;2.30;;;;;;;;;;4984388;28;20100;-72
2021/03/25 11:32:46;;;;;;;13.82;4.60;;;;;;;;;;4985123;28;20124;-72
2021/03/25 11:35:38;;;;;;;4.82;3.42;;;;;;;;;;4991435;28;20177;-73
2021/03/25 11:38:19;;;;;;;4.32;2.80;;;;;;;;;;4977040;28;20059;-74
2021/03/25 11:40:45;;;;;;;5.57;2.78;;;;;;;;;;4987726;28;20046;-75
2021/03/25 11:43:12;;;;;;;3.08;2.42;;;;;;;;;;4984440;28;20386;-74
2021/03/25 11:45:39;;;;;;;8.05;4.50;;;;;;;;;;4987210;28;20037;-73
2021/03/25 11:48:34;;;;;;;6.55;4.07;;;;;;;;;;4984566;28;20385;-73
2021/03/25 11:51:17;;;;;;;10.13;3.78;;;;;;;;;;4974220;28;20046;-73
2021/03/25 11:53:44;;;;;;;13.13;6.80;;;;;;;;;;4978731;28;20075;-73
2021/03/25 11:56:22;;;;;;;15.68;6.72;;;;;;;;;;4986672;28;20121;-73
2021/03/25 11:59:10;;;;;;;11.98;4.70;;;;;;;;;;4981802;28;20071;-73
2021/03/25 12:01:36;;;;;;;10.25;5.32;;;;;;;;;;4979996;28;20049;-72
2021/03/25 12:04:03;;;;;;;5.32;3.33;;;;;;;;;;4978265;28;20504;-72
2021/03/25 12:06:33;;;;;;;7.00;2.80;;;;;;;;;;4981850;28;20529;-71
2021/03/25 12:09:09;;;;;;;13.35;4.82;;;;;;;;;;4959292;28;20027;-69
2021/03/25 12:11:36;;;;;;;4.85;2.05;;;;;;;;;;4975910;28;20554;-71
2021/03/25 12:14:01;;;;;;;16.63;2.67;;;;;;;;;;4970530;28;20053;-72
2021/03/25 12:16:26;;;;;;;7.65;2.38;;;;;;;;;;4972739;28;20462;-72
2021/03/25 12:18:55;;;;;;;4.85;2.70;;;;;;;;;;4973643;28;20063;-72
2021/03/25 12:21:23;;;;;;;9.10;3.35;;;;;;;;;;4973181;28;20394;-71
2021/03/25 12:23:48;;;;;;;13.23;3.35;;;;;;;;;;4959422;28;20536;-72
2021/03/25 12:26:15;;;;;;;3.88;2.83;;;;;;;;;;4977207;28;20102;-72
2021/03/25 12:28:41;;;;;;;10.00;2.70;;;;;;;;;;4983818;28;20018;-72
2021/03/25 12:31:07;;;;;;;5.80;2.10;;;;;;;;;;4984760;28;20813;-71
2021/03/25 12:33:34;;;;;;;4.28;1.95;;;;;;;;;;4980435;28;20378;-72
2021/03/25 12:36:00;;;;;;;5.55;2.55;;;;;;;;;;4985192;28;20116;-72
2021/03/25 12:38:25;;;;;;;11.57;4.70;;;;;;;;;;4985632;28;20113;-73
2021/03/25 12:40:51;;;;;;;4.75;3.17;;;;;;;;;;4969600;28;20089;-68
2021/03/25 12:43:39;;;;;;;5.70;2.67;;;;;;;;;;4931092;28;20039;-68
2021/03/25 12:46:11;;;;;;;8.02;3.33;;;;;;;;;;4918704;29;20039;-68
2021/03/25 12:48:36;;;;;;;7.22;2.78;;;;;;;;;;4934961;29;20035;-68
2021/03/25 12:51:03;;;;;;;7.38;3.05;;;;;;;;;;4935133;29;20146;-68
2021/03/25 12:53:29;;;;;;;8.45;2.03;;;;;;;;;;4933075;29;20055;-67
2021/03/25 12:55:55;;;;;;;2.58;1.67;;;;;;;;;;4933198;29;20039;-69
2021/03/25 12:58:23;;;;;;;5.38;1.38;;;;;;;;;;4933509;29;20023;-67
2021/03/25 13:00:49;;;;;;;6.78;4.00;;;;;;;;;;4930758;29;20138;-69
2021/03/25 13:03:14;;;;;;;3.72;2.50;;;;;;;;;;4934748;29;20105;-67
2021/03/25 13:05:39;;;;;;;4.60;3.08;;;;;;;;;;4936604;29;20082;-68
2021/03/25 13:08:05;;;;;;;12.18;2.63;;;;;;;;;;4932200;28;20110;-68
2021/03/25 13:10:30;;;;;;;6.38;2.03;;;;;;;;;;4934239;29;20027;-69
2021/03/25 13:12:56;;;;;;;3.72;2.45;;;;;;;;;;4932821;29;20024;-68
2021/03/25 13:15:22;;;;;;;5.75;2.42;;;;;;;;;;4940356;29;20494;-70
2021/03/25 13:17:48;;;;;;;4.72;2.03;;;;;;;;;;4936654;28;20081;-69
2021/03/25 13:20:14;;;;;;;5.85;2.95;;;;;;;;;;4941268;29;20024;-67
2021/03/25 13:22:40;;;;;;;2.67;1.55;;;;;;;;;;4940737;28;20032;-67
2021/03/25 13:25:06;;;;;;;4.53;1.67;;;;;;;;;;4944372;29;20388;-72
2021/03/25 13:27:31;;;;;;;2.33;1.63;;;;;;;;;;4939470;29;20028;-68
2021/03/25 13:29:57;;;;;;;3.90;2.85;;;;;;;;;;4934753;29;20043;-68
2021/03/25 13:32:22;;;;;;;5.60;3.60;;;;;;;;;;4941214;28;20027;-68
2021/03/25 13:34:47;;;;;;;16.50;3.80;;;;;;;;;;4946632;28;20486;-68
2021/03/25 13:37:13;;;;;;;4.63;2.83;;;;;;;;;;4943372;28;20035;-68
2021/03/25 13:39:38;;;;;;;4.40;3.38;;;;;;;;;;4945683;28;20039;-68
2021/03/25 13:42:04;;;;;;;5.40;2.17;;;;;;;;;;4950334;28;20035;-67
2021/03/25 13:44:29;;;;;;;4.68;2.72;;;;;;;;;;4949644;28;20050;-74
2021/03/25 13:46:55;;;;;;;5.85;2.92;;;;;;;;;;4942940;28;20107;-68
2021/03/25 13:49:20;;;;;;;5.88;2.13;;;;;;;;;;4944698;29;20125;-69
2021/03/25 13:51:46;;;;;;;15.30;3.53;;;;;;;;;;4950364;28;20442;-68
2021/03/25 13:54:11;;;;;;;8.55;2.63;;;;;;;;;;4944309;28;20542;-68
2021/03/25 13:56:36;;;;;;;8.05;2.53;;;;;;;;;;4948591;29;20038;-69
2021/03/25 13:59:02;;;;;;;13.70;3.58;;;;;;;;;;4947670;28;20050;-68
2021/03/25 14:01:27;;;;;;;8.77;4.10;;;;;;;;;;4941885;28;20056;-68
2021/03/25 14:03:52;;;;;;;6.85;3.38;;;;;;;;;;4946849;28;20483;-69
2021/03/25 14:06:18;;;;;;;6.38;3.00;;;;;;;;;;4947421;28;20479;-69
2021/03/25 14:08:43;;;;;;;7.43;3.15;;;;;;;;;;4949483;28;20034;-69
2021/03/25 14:11:08;;;;;;;3.75;2.63;;;;;;;;;;4945620;28;20576;-68
2021/03/25 14:13:34;;;;;;;7.55;4.28;;;;;;;;;;4945763;29;20063;-69
2021/03/25 14:15:59;;;;;;;5.05;3.25;;;;;;;;;;4935801;29;20036;-71
2021/03/25 14:18:26;;;;;;;7.10;2.60;;;;;;;;;;4943666;28;20035;-68
2021/03/25 14:20:52;;;;;;;4.40;2.58;;;;;;;;;;4949452;28;20031;-69
2021/03/25 14:23:18;;;;;;;8.60;4.80;;;;;;;;;;4947162;28;20027;-69
2021/03/25 14:25:44;;;;;;;5.15;3.50;;;;;;;;;;4947022;28;20036;-69
2021/03/25 14:28:11;;;;;;;7.38;4.38;;;;;;;;;;4946796;28;20038;-69
2021/03/25 14:30:36;;;;;;;6.32;2.25;;;;;;;;;;4948929;29;20487;-68
2021/03/25 14:33:02;;;;;;;1.48;1.10;;;;;;;;;;4949726;28;20035;-69
2021/03/25 14:35:30;;;;;;;4.30;2.83;;;;;;;;;;4943484;28;20460;-69
2021/03/25 14:37:56;;;;;;;7.25;3.72;;;;;;;;;;4939026;28;20023;-69
2021/03/25 14:40:22;;;;;;;2.80;1.85;;;;;;;;;;4942566;29;20046;-66
2021/03/25 14:42:47;;;;;;;8.93;2.70;;;;;;;;;;4950550;28;20023;-71
2021/03/25 14:45:14;;;;;;;5.80;3.80;;;;;;;;;;4940263;28;20031;-71
2021/03/25 14:47:40;;;;;;;4.32;2.30;;;;;;;;;;4939115;29;20462;-71
2021/03/25 14:50:06;;;;;;;2.08;1.17;;;;;;;;;;4937039;29;20027;-70
2021/03/25 14:52:32;;;;;;;3.42;1.83;;;;;;;;;;4938674;29;20049;-71
2021/03/25 14:54:57;;;;;;;8.48;3.58;;;;;;;;;;4937664;28;20463;-71
2021/03/25 14:57:23;;;;;;;4.53;2.55;;;;;;;;;;4938587;29;20123;-71
2021/03/25 14:59:48;;;;;;;5.70;2.00;;;;;;;;;;4938473;28;20027;-71